createdAt,value
2023-01-17T00:01:13.635Z,97354.91
2023-01-17T00:03:59.028Z,97357.03
2023-01-17T00:06:44.649Z,97354.84
2023-01-17T00:09:31.010Z,97350.72
2023-01-17T00:11:59.102Z,97342.94
2023-01-17T00:14:27.263Z,97344.22
2023-01-17T00:16:54.320Z,97337.16
2023-01-17T00:19:41.084Z,97333.88
2023-01-17T00:22:30.873Z,97338.09
2023-01-17T00:25:15.959Z,97327.84
2023-01-17T00:27:45.263Z,97328.31
2023-01-17T00:30:14.637Z,97324.03
2023-01-17T00:32:41.092Z,97335.78
2023-01-17T00:35:07.869Z,97326.28
2023-01-17T00:37:34.804Z,97332.66
2023-01-17T00:40:02.698Z,97330.22
2023-01-17T00:42:29.144Z,97329.13
2023-01-17T00:45:14.091Z,97323.59
2023-01-17T00:47:59.343Z,97320.53
2023-01-17T00:50:44.433Z,97328.47
2023-01-17T00:53:29.239Z,97323.66
2023-01-17T00:56:14.511Z,97321.63
2023-01-17T00:58:59.596Z,97324.00
2023-01-17T01:01:44.816Z,97323.81
2023-01-17T01:04:30.066Z,97327.84
2023-01-17T01:07:15.411Z,97321.31
2023-01-17T01:10:00.743Z,97324.84
2023-01-17T01:12:45.733Z,97317.09
2023-01-17T01:15:30.694Z,97324.19
2023-01-17T01:18:15.425Z,97322.47
2023-01-17T01:21:00.463Z,97312.22
2023-01-17T01:23:45.590Z,97317.34
2023-01-17T01:26:30.353Z,97318.31
2023-01-17T01:29:15.557Z,97324.66
2023-01-17T01:32:00.870Z,97320.03
2023-01-17T01:34:27.613Z,97318.16
2023-01-17T01:36:55.399Z,97317.69
2023-01-17T01:39:22.157Z,97317.69
2023-01-17T01:41:48.891Z,97322.09
2023-01-17T01:44:34.749Z,97307.88
2023-01-17T01:47:01.148Z,97313.38
2023-01-17T01:49:29.563Z,97306.56
2023-01-17T01:51:58.987Z,97302.44
2023-01-17T01:54:27.277Z,97300.38
2023-01-17T01:56:54.710Z,97302.44
2023-01-17T01:59:22.877Z,97298.56
2023-01-17T02:01:51.757Z,97296.03
2023-01-17T02:04:19.220Z,97301.34
2023-01-17T02:06:54.081Z,97286.59
2023-01-17T02:09:20.751Z,97304.97
2023-01-17T02:11:49.060Z,97301.31
2023-01-17T02:14:16.779Z,97300.84
2023-01-17T02:16:46.564Z,97298.75
2023-01-17T02:19:25.080Z,97295.50
2023-01-17T02:22:18.055Z,97286.06
2023-01-17T02:24:56.685Z,97291.47
2023-01-17T02:27:23.231Z,97287.78
2023-01-17T02:29:52.626Z,97282.66
2023-01-17T02:32:31.873Z,97277.63
2023-01-17T02:35:01.680Z,97278.00
2023-01-17T02:37:33.963Z,97282.25
2023-01-17T02:40:06.737Z,97283.66
2023-01-17T02:42:42.863Z,97284.88
2023-01-17T02:45:14.696Z,97284.44
2023-01-17T02:47:41.277Z,97283.38
2023-01-17T02:50:10.167Z,97284.88
2023-01-17T02:52:55.605Z,97284.50
2023-01-17T02:55:32.250Z,97284.84
2023-01-17T02:58:17.856Z,97286.34
2023-01-17T03:01:03.114Z,97286.44
2023-01-17T03:03:38.746Z,97289.28
2023-01-17T03:06:25.677Z,97293.41
2023-01-17T03:08:54.291Z,97284.16
2023-01-17T03:11:21.119Z,97292.69
2023-01-17T03:13:47.841Z,97286.38
2023-01-17T03:16:17.423Z,97280.88
2023-01-17T03:18:45.777Z,97283.41
2023-01-17T03:21:12.318Z,97280.16
2023-01-17T03:23:40.272Z,97279.31
2023-01-17T03:26:06.715Z,97283.63
2023-01-17T03:28:33.238Z,97281.38
2023-01-17T03:31:00.036Z,97279.06
2023-01-17T03:33:26.700Z,97275.22
2023-01-17T03:35:54.555Z,97276.81
2023-01-17T03:38:21.313Z,97277.41
2023-01-17T03:40:47.946Z,97280.06
2023-01-17T03:43:14.768Z,97283.25
2023-01-17T03:45:41.571Z,97278.25
2023-01-17T03:48:08.172Z,97276.00
2023-01-17T03:50:34.913Z,97280.91
2023-01-17T03:53:01.638Z,97279.47
2023-01-17T03:55:28.399Z,97275.00
2023-01-17T03:57:55.197Z,97285.28
2023-01-17T04:00:21.851Z,97287.03
2023-01-17T04:02:48.968Z,97280.19
2023-01-17T04:05:15.670Z,97286.94
2023-01-17T04:07:42.238Z,97279.09
2023-01-17T04:10:09.183Z,97276.66
2023-01-17T04:12:35.735Z,97283.81
2023-01-17T04:15:02.499Z,97283.97
2023-01-17T04:17:29.250Z,97281.63
2023-01-17T04:19:56.125Z,97275.53
2023-01-17T04:22:22.823Z,97281.41
2023-01-17T04:24:49.411Z,97275.75
2023-01-17T04:27:15.929Z,97282.00
2023-01-17T04:29:42.289Z,97275.38
2023-01-17T04:32:08.924Z,97274.09
2023-01-17T04:34:35.257Z,97279.41
2023-01-17T04:37:03.211Z,97278.75
2023-01-17T04:39:32.813Z,97282.63
2023-01-17T04:41:59.503Z,97279.53
2023-01-17T04:44:26.259Z,97280.16
2023-01-17T04:46:52.775Z,97287.41
2023-01-17T04:49:19.292Z,97290.00
2023-01-17T04:51:45.827Z,97294.19
2023-01-17T04:54:12.333Z,97297.69
2023-01-17T04:56:38.851Z,97298.47
2023-01-17T04:59:05.506Z,97304.88
2023-01-17T05:01:32.398Z,97306.41
2023-01-17T05:03:59.276Z,97311.75
2023-01-17T05:06:27.296Z,97316.22
2023-01-17T05:08:53.869Z,97317.28
2023-01-17T05:11:20.497Z,97305.81
2023-01-17T05:13:47.966Z,97312.56
2023-01-17T05:16:14.685Z,97316.75
2023-01-17T05:18:41.237Z,97317.19
2023-01-17T05:21:07.769Z,97321.78
2023-01-17T05:23:34.329Z,97330.38
2023-01-17T05:26:00.886Z,97332.00
2023-01-17T05:28:27.399Z,97327.69
2023-01-17T05:30:54.088Z,97329.47
2023-01-17T05:33:20.898Z,97338.03
2023-01-17T05:35:47.577Z,97346.81
2023-01-17T05:38:14.359Z,97343.28
2023-01-17T05:40:40.809Z,97353.25
2023-01-17T05:43:10.044Z,97347.22
2023-01-17T05:45:37.065Z,97363.75
2023-01-17T05:48:06.883Z,97358.88
2023-01-17T05:50:38.035Z,97357.75
2023-01-17T05:53:06.432Z,97362.69
2023-01-17T05:55:33.235Z,97358.06
2023-01-17T05:58:00.480Z,97365.91
2023-01-17T06:00:27.420Z,97357.16
2023-01-17T06:02:55.159Z,97365.59
2023-01-17T06:05:22.956Z,97362.25
2023-01-17T06:07:50.058Z,97364.25
2023-01-17T06:10:17.739Z,97366.75
2023-01-17T06:12:44.716Z,97368.94
2023-01-17T06:15:14.439Z,97364.66
2023-01-17T06:17:41.766Z,97372.47
2023-01-17T06:20:08.980Z,97372.91
2023-01-17T06:22:36.131Z,97382.88
2023-01-17T06:25:04.047Z,97375.97
2023-01-17T06:27:30.897Z,97388.97
2023-01-17T06:29:57.479Z,97401.81
2023-01-17T06:32:24.119Z,97422.25
2023-01-17T06:34:50.874Z,97416.66
2023-01-17T06:37:17.406Z,97408.13
2023-01-17T06:39:43.979Z,97433.69
2023-01-17T06:42:10.794Z,97431.75
2023-01-17T06:44:37.766Z,97439.56
2023-01-17T06:47:04.447Z,97457.84
2023-01-17T06:49:31.180Z,97453.16
2023-01-17T06:51:57.682Z,97464.19
2023-01-17T06:54:24.170Z,97482.06
2023-01-17T06:56:50.649Z,97479.06
2023-01-17T06:59:17.176Z,97495.94
2023-01-17T07:01:44.041Z,97497.56
2023-01-17T07:04:10.818Z,97505.03
2023-01-17T07:06:37.273Z,97522.53
2023-01-17T07:09:04.482Z,97525.63
2023-01-17T07:11:31.147Z,97527.75
2023-01-17T07:13:57.594Z,97535.50
2023-01-17T07:16:24.664Z,97543.31
2023-01-17T07:18:51.812Z,97553.31
2023-01-17T07:21:19.122Z,97551.00
2023-01-17T07:23:46.115Z,97558.22
2023-01-17T07:26:12.510Z,97564.28
2023-01-17T07:28:39.312Z,97568.47
2023-01-17T07:31:07.583Z,97581.63
2023-01-17T07:33:34.368Z,97597.44
2023-01-17T07:36:08.108Z,97599.03
2023-01-17T07:38:35.078Z,97607.31
2023-01-17T07:41:01.948Z,97599.03
2023-01-17T07:43:28.638Z,97603.25
2023-01-17T07:45:55.165Z,97616.88
2023-01-17T07:48:22.905Z,97620.91
2023-01-17T07:50:56.440Z,97629.97
2023-01-17T07:53:24.455Z,97629.00
2023-01-17T07:55:50.968Z,97645.38
2023-01-17T07:58:17.412Z,97658.75
2023-01-17T08:00:46.886Z,97662.91
2023-01-17T08:03:16.552Z,97663.81
2023-01-17T08:05:43.943Z,97668.56
2023-01-17T08:08:10.444Z,97675.81
2023-01-17T08:10:37.072Z,97677.66
2023-01-17T08:13:03.656Z,97686.53
2023-01-17T08:15:30.530Z,97685.03
2023-01-17T08:17:58.688Z,97690.91
2023-01-17T08:20:27.807Z,97691.56
2023-01-17T08:22:56.425Z,97701.63
2023-01-17T08:25:27.924Z,97702.06
2023-01-17T08:27:58.120Z,97705.94
2023-01-17T08:30:24.691Z,97711.78
2023-01-17T08:32:51.395Z,97709.03
2023-01-17T08:35:20.204Z,97714.97
2023-01-17T08:37:47.585Z,97719.31
2023-01-17T08:40:19.304Z,97713.34
2023-01-17T08:42:53.444Z,97722.63
2023-01-17T08:45:19.997Z,97724.59
2023-01-17T08:47:46.519Z,97742.47
2023-01-17T08:50:13.030Z,97748.75
2023-01-17T08:52:39.674Z,97756.16
2023-01-17T08:55:06.528Z,97759.78
2023-01-17T08:57:33.076Z,97766.63
2023-01-17T08:59:59.799Z,97762.69
2023-01-17T09:02:26.632Z,97775.84
2023-01-17T09:04:53.786Z,97771.38
2023-01-17T09:07:20.755Z,97778.97
2023-01-17T09:09:47.517Z,97782.94
2023-01-17T09:12:14.136Z,97789.53
2023-01-17T09:14:40.605Z,97792.72
2023-01-17T09:17:07.119Z,97798.81
2023-01-17T09:19:33.721Z,97803.69
2023-01-17T09:22:00.125Z,97800.84
2023-01-17T09:24:27.011Z,97816.00
2023-01-17T09:26:53.547Z,97817.31
2023-01-17T09:29:20.131Z,97828.41
2023-01-17T09:31:48.305Z,97818.31
2023-01-17T09:34:14.686Z,97829.78
2023-01-17T09:36:41.586Z,97834.69
2023-01-17T09:39:10.183Z,97840.22
2023-01-17T09:41:57.137Z,97836.56
2023-01-17T09:44:23.990Z,97842.44
2023-01-17T09:46:52.498Z,97836.13
2023-01-17T09:49:41.226Z,97836.72
2023-01-17T09:52:08.870Z,97839.47
2023-01-17T09:54:37.869Z,97846.78
2023-01-17T09:57:07.374Z,97854.19
2023-01-17T09:59:35.841Z,97866.25
2023-01-17T10:02:27.105Z,97894.66
2023-01-17T10:05:11.564Z,97905.75
2023-01-17T10:07:38.632Z,97912.38
2023-01-17T10:10:06.582Z,97912.41
2023-01-17T10:12:45.144Z,97893.63
2023-01-17T10:15:17.755Z,97907.25
2023-01-17T10:18:00.116Z,97906.47
2023-01-17T10:20:34.774Z,97906.94
2023-01-17T10:23:22.102Z,97929.56
2023-01-17T10:25:52.531Z,97893.59
2023-01-17T10:28:34.622Z,97907.31
2023-01-17T10:31:06.056Z,97904.69
2023-01-17T10:33:46.018Z,97900.09
2023-01-17T10:36:15.535Z,97903.94
2023-01-17T10:38:45.761Z,97902.09
2023-01-17T10:41:15.238Z,97899.69
2023-01-17T10:44:17.140Z,97902.44
2023-01-17T10:46:58.612Z,97896.81
2023-01-17T10:49:26.040Z,97898.56
2023-01-17T10:52:08.478Z,97894.78
2023-01-17T10:54:38.855Z,97898.38
2023-01-17T10:57:05.246Z,97909.69
2023-01-17T10:59:33.611Z,97899.34
2023-01-17T11:02:00.406Z,97903.47
2023-01-17T11:04:37.961Z,97901.19
2023-01-17T11:07:19.806Z,97905.25
2023-01-17T11:09:47.401Z,97903.53
2023-01-17T11:12:20.015Z,97915.78
2023-01-17T11:14:58.523Z,97919.56
2023-01-17T11:17:27.531Z,97924.50
2023-01-17T11:19:54.664Z,97918.81
2023-01-17T11:22:21.087Z,97929.19
2023-01-17T11:24:49.788Z,97931.78
2023-01-17T11:27:25.453Z,97947.78
2023-01-17T11:30:15.794Z,97947.75
2023-01-17T11:32:55.388Z,97952.44
2023-01-17T11:35:31.058Z,97950.47
2023-01-17T11:38:05.347Z,97949.38
2023-01-17T11:40:36.017Z,97951.88
2023-01-17T11:43:12.473Z,97949.66
2023-01-17T11:45:39.434Z,97952.25
2023-01-17T11:48:08.774Z,97948.19
2023-01-17T11:50:37.493Z,97963.97
2023-01-17T11:53:07.008Z,97949.13
2023-01-17T11:55:33.585Z,97948.63
2023-01-17T11:58:00.584Z,97964.59
2023-01-17T12:00:33.575Z,97952.97
2023-01-17T12:03:23.531Z,97960.31
2023-01-17T12:06:01.261Z,97964.91
2023-01-17T12:08:51.320Z,97962.56
2023-01-17T12:11:28.462Z,97974.72
2023-01-17T12:14:01.921Z,97980.38
2023-01-17T12:16:43.964Z,97983.41
2023-01-17T12:19:25.583Z,97984.00
2023-01-17T12:22:10.654Z,97978.31
2023-01-17T12:24:50.668Z,97985.75
2023-01-17T12:27:30.165Z,97980.84
2023-01-17T12:30:05.672Z,97975.38
2023-01-17T12:32:40.652Z,97970.44
2023-01-17T12:35:13.187Z,97983.94
2023-01-17T12:37:52.664Z,97989.88
2023-01-17T12:40:37.190Z,97977.38
2023-01-17T12:43:08.007Z,97989.69
2023-01-17T12:45:44.955Z,97996.38
2023-01-17T12:48:12.778Z,97995.94
2023-01-17T12:50:41.451Z,98000.56
2023-01-17T12:53:21.211Z,97994.16
2023-01-17T12:55:53.779Z,98002.91
2023-01-17T12:58:21.524Z,98011.97
2023-01-17T13:00:51.612Z,98010.50
2023-01-17T13:03:27.268Z,97999.63
2023-01-17T13:05:55.475Z,98013.34
2023-01-17T13:08:39.111Z,98011.31
2023-01-17T13:11:13.053Z,98018.06
2023-01-17T13:13:41.275Z,98025.09
2023-01-17T13:16:08.031Z,98030.63
2023-01-17T13:18:35.609Z,98036.38
2023-01-17T13:21:11.051Z,98028.63
2023-01-17T13:23:46.689Z,98034.34
2023-01-17T13:26:31.959Z,98047.66
2023-01-17T13:29:07.262Z,98057.41
2023-01-17T13:31:36.858Z,98056.69
2023-01-17T13:34:09.321Z,98066.41
2023-01-17T13:36:54.694Z,98064.19
2023-01-17T13:39:24.186Z,98057.72
2023-01-17T13:41:53.178Z,98064.72
2023-01-17T13:44:22.855Z,98076.56
2023-01-17T13:46:58.633Z,98069.09
2023-01-17T13:49:34.372Z,98073.06
2023-01-17T13:52:12.119Z,98080.88
2023-01-17T13:54:47.781Z,98086.75
2023-01-17T13:57:24.490Z,98087.34
2023-01-17T13:59:51.582Z,98088.38
2023-01-17T14:02:33.179Z,98087.75
2023-01-17T14:05:17.418Z,98085.56
2023-01-17T14:07:49.565Z,98087.84
2023-01-17T14:10:30.423Z,98093.44
2023-01-17T14:12:57.189Z,98093.16
2023-01-17T14:15:27.017Z,98094.59
2023-01-17T14:17:56.481Z,98097.75
2023-01-17T14:20:26.277Z,98102.16
2023-01-17T14:22:57.937Z,98110.91
2023-01-17T14:25:40.852Z,98112.88
2023-01-17T14:28:21.808Z,98120.31
2023-01-17T14:30:54.188Z,98118.22
2023-01-17T14:33:25.119Z,98119.91
2023-01-17T14:35:56.137Z,98118.13
2023-01-17T14:38:24.098Z,98125.03
2023-01-17T14:40:52.649Z,98128.63
2023-01-17T14:43:20.605Z,98129.09
2023-01-17T14:45:47.593Z,98137.31
2023-01-17T14:48:21.473Z,98142.69
2023-01-17T14:50:48.897Z,98142.34
2023-01-17T14:53:31.440Z,98129.69
2023-01-17T14:55:59.734Z,98130.84
2023-01-17T14:58:28.924Z,98128.63
2023-01-17T15:00:57.799Z,98135.78
2023-01-17T15:03:24.712Z,98138.19
2023-01-17T15:05:52.848Z,98140.41
2023-01-17T15:08:21.174Z,98142.34
2023-01-17T15:10:56.192Z,98141.59
2023-01-17T15:13:35.587Z,98155.41
2023-01-17T15:16:07.246Z,98167.25
2023-01-17T15:18:37.763Z,98184.09
2023-01-17T15:21:06.285Z,98177.50
2023-01-17T15:23:34.986Z,98185.88
2023-01-17T15:26:03.304Z,98177.81
2023-01-17T15:28:30.328Z,98180.38
2023-01-17T15:31:09.183Z,98171.91
2023-01-17T15:33:40.132Z,98178.50
2023-01-17T15:36:08.671Z,98170.19
2023-01-17T15:38:40.285Z,98170.41
2023-01-17T15:41:11.770Z,98170.72
2023-01-17T15:43:39.693Z,98170.03
2023-01-17T15:46:06.485Z,98180.41
2023-01-17T15:48:44.369Z,98173.34
2023-01-17T15:51:12.235Z,98180.28
2023-01-17T15:53:41.104Z,98184.63
2023-01-17T15:56:20.359Z,98187.00
2023-01-17T15:58:50.728Z,98180.09
2023-01-17T16:01:23.840Z,98188.03
2023-01-17T16:03:54.513Z,98192.28
2023-01-17T16:06:30.709Z,98191.28
2023-01-17T16:08:57.261Z,98192.25
2023-01-17T16:11:23.670Z,98196.88
2023-01-17T16:13:50.407Z,98204.88
2023-01-17T16:16:24.934Z,98213.41
2023-01-17T16:18:58.009Z,98206.19
2023-01-17T16:21:26.599Z,98210.84
2023-01-17T16:23:54.448Z,98218.59
2023-01-17T16:26:21.607Z,98223.75
2023-01-17T16:28:50.739Z,98224.06
2023-01-17T16:31:18.191Z,98225.97
2023-01-17T16:33:46.331Z,98228.34
2023-01-17T16:36:18.613Z,98234.19
2023-01-17T16:38:45.922Z,98231.56
2023-01-17T16:41:13.500Z,98232.66
2023-01-17T16:43:43.467Z,98239.06
2023-01-17T16:46:11.941Z,98241.56
2023-01-17T16:48:45.247Z,98235.94
2023-01-17T16:51:13.682Z,98243.22
2023-01-17T16:53:41.698Z,98248.50
2023-01-17T16:56:12.352Z,98246.63
2023-01-17T16:58:41.830Z,98244.75
2023-01-17T17:01:16.603Z,98254.81
2023-01-17T17:03:44.169Z,98259.63
2023-01-17T17:06:11.990Z,98258.56
2023-01-17T17:08:42.246Z,98255.81
2023-01-17T17:11:09.590Z,98265.00
2023-01-17T17:13:36.773Z,98272.47
2023-01-17T17:16:09.301Z,98279.00
2023-01-17T17:18:36.921Z,98277.81
2023-01-17T17:21:04.030Z,98267.88
2023-01-17T17:23:31.466Z,98268.59
2023-01-17T17:26:01.207Z,98276.78
2023-01-17T17:28:28.137Z,98288.19
2023-01-17T17:31:02.360Z,98288.47
2023-01-17T17:33:30.649Z,98281.47
2023-01-17T17:36:01.855Z,98288.53
2023-01-17T17:38:28.350Z,98289.34
2023-01-17T17:40:55.181Z,98294.31
2023-01-17T17:43:22.064Z,98290.41
2023-01-17T17:45:50.089Z,98293.44
2023-01-17T17:48:17.587Z,98295.88
2023-01-17T17:50:44.250Z,98302.03
2023-01-17T17:53:11.136Z,98305.13
2023-01-17T17:55:40.169Z,98299.44
2023-01-17T17:58:06.835Z,98305.44
2023-01-17T18:00:33.889Z,98311.38
2023-01-17T18:03:00.523Z,98313.50
2023-01-17T18:05:27.136Z,98312.94
2023-01-17T18:07:53.827Z,98317.88
2023-01-17T18:10:20.649Z,98325.91
2023-01-17T18:12:54.717Z,98331.78
2023-01-17T18:15:24.172Z,98329.50
2023-01-17T18:17:56.172Z,98326.66
2023-01-17T18:20:22.953Z,98332.59
2023-01-17T18:22:49.545Z,98335.88
2023-01-17T18:25:16.495Z,98340.34
2023-01-17T18:27:48.307Z,98337.31
2023-01-17T18:30:14.784Z,98335.66
2023-01-17T18:32:43.894Z,98335.69
2023-01-17T18:35:11.735Z,98344.00
2023-01-17T18:37:38.361Z,98351.34
2023-01-17T18:40:05.381Z,98345.22
2023-01-17T18:42:34.287Z,98347.66
2023-01-17T18:45:01.204Z,98353.59
2023-01-17T18:47:29.367Z,98349.72
2023-01-17T18:49:55.933Z,98355.41
2023-01-17T18:52:23.736Z,98360.31
2023-01-17T18:54:50.777Z,98360.69
2023-01-17T18:57:18.340Z,98362.75
2023-01-17T18:59:44.829Z,98369.03
2023-01-17T19:02:24.344Z,98366.78
2023-01-17T19:04:50.820Z,98363.94
2023-01-17T19:07:18.698Z,98372.28
2023-01-17T19:09:46.763Z,98373.72
2023-01-17T19:12:14.719Z,98382.88
2023-01-17T19:14:44.043Z,98377.81
2023-01-17T19:17:18.909Z,98374.53
2023-01-17T19:19:45.609Z,98375.38
2023-01-17T19:22:14.960Z,98374.13
2023-01-17T19:24:41.856Z,98376.59
2023-01-17T19:27:11.954Z,98375.34
2023-01-17T19:29:39.795Z,98377.81
2023-01-17T19:32:12.767Z,98381.28
2023-01-17T19:34:40.525Z,98382.44
2023-01-17T19:37:10.583Z,98381.47
2023-01-17T19:39:46.578Z,98377.41
2023-01-17T19:42:19.021Z,98378.19
2023-01-17T19:44:52.971Z,98386.72
2023-01-17T19:47:25.651Z,98386.50
2023-01-17T19:49:54.255Z,98392.88
2023-01-17T19:52:27.004Z,98396.88
2023-01-17T19:54:59.936Z,98389.53
2023-01-17T19:57:37.527Z,98393.66
2023-01-17T20:00:24.049Z,98393.69
2023-01-17T20:03:02.604Z,98408.13
2023-01-17T20:05:35.541Z,98410.56
2023-01-17T20:08:09.846Z,98412.63
2023-01-17T20:10:37.258Z,98410.50
2023-01-17T20:13:13.689Z,98413.91
2023-01-17T20:15:41.183Z,98410.28
2023-01-17T20:18:14.618Z,98413.84
2023-01-17T20:20:56.578Z,98410.72
2023-01-17T20:23:27.396Z,98414.38
2023-01-17T20:26:00.697Z,98411.34
2023-01-17T20:28:33.907Z,98408.97
2023-01-17T20:31:08.657Z,98411.44
2023-01-17T20:33:46.616Z,98411.44
2023-01-17T20:36:20.172Z,98420.41
2023-01-17T20:38:54.562Z,98424.38
2023-01-17T20:41:26.458Z,98417.31
2023-01-17T20:43:55.065Z,98421.75
2023-01-17T20:46:24.981Z,98416.84
2023-01-17T20:48:53.330Z,98418.56
2023-01-17T20:51:20.706Z,98416.22
2023-01-17T20:53:52.125Z,98421.69
2023-01-17T20:56:19.450Z,98413.16
2023-01-17T20:58:46.451Z,98417.34
2023-01-17T21:01:20.973Z,98421.16
2023-01-17T21:03:51.187Z,98421.56
2023-01-17T21:06:22.560Z,98423.91
2023-01-17T21:08:49.871Z,98420.03
2023-01-17T21:11:18.130Z,98427.72
2023-01-17T21:13:45.412Z,98434.81
2023-01-17T21:16:14.239Z,98422.19
2023-01-17T21:18:42.105Z,98427.72
2023-01-17T21:21:11.569Z,98422.41
2023-01-17T21:23:38.961Z,98422.81
2023-01-17T21:26:06.015Z,98425.63
2023-01-17T21:28:37.255Z,98422.03
2023-01-17T21:31:29.098Z,98429.22
2023-01-17T21:34:00.558Z,98425.34
2023-01-17T21:36:28.532Z,98427.22
2023-01-17T21:38:56.948Z,98429.44
2023-01-17T21:41:26.035Z,98434.59
2023-01-17T21:43:56.722Z,98432.50
2023-01-17T21:46:23.910Z,98439.44
2023-01-17T21:48:50.878Z,98435.75
2023-01-17T21:51:19.375Z,98445.19
2023-01-17T21:53:46.315Z,98451.72
2023-01-17T21:56:32.531Z,98453.91
2023-01-17T21:58:59.267Z,98461.47
2023-01-17T22:01:27.694Z,98465.31
2023-01-17T22:03:56.058Z,98464.41
2023-01-17T22:06:23.936Z,98474.59
2023-01-17T22:08:50.761Z,98473.72
2023-01-17T22:11:20.376Z,98472.50
2023-01-17T22:13:47.444Z,98475.44
2023-01-17T22:16:15.172Z,98486.69
2023-01-17T22:18:42.785Z,98489.72
2023-01-17T22:21:13.932Z,98487.56
2023-01-17T22:23:44.785Z,98495.06
2023-01-17T22:26:11.876Z,98499.47
2023-01-17T22:28:39.795Z,98505.97
2023-01-17T22:31:13.864Z,98504.50
2023-01-17T22:33:41.651Z,98511.28
2023-01-17T22:36:09.196Z,98517.91
2023-01-17T22:38:36.500Z,98518.63
2023-01-17T22:41:07.820Z,98522.81
2023-01-17T22:43:35.440Z,98516.91
2023-01-17T22:46:02.082Z,98519.19
2023-01-17T22:48:30.163Z,98523.38
2023-01-17T22:50:58.116Z,98528.13
2023-01-17T22:53:25.159Z,98526.16
2023-01-17T22:56:01.590Z,98525.94
2023-01-17T22:58:28.753Z,98531.41
2023-01-17T23:00:57.754Z,98523.47
2023-01-17T23:03:24.623Z,98538.09
2023-01-17T23:05:51.272Z,98522.81
2023-01-17T23:08:19.985Z,98528.69
2023-01-17T23:11:05.300Z,98532.97
2023-01-17T23:13:31.704Z,98532.25
2023-01-17T23:16:17.037Z,98533.16
2023-01-17T23:19:02.315Z,98527.75
2023-01-17T23:21:48.897Z,98541.59
2023-01-17T23:24:15.245Z,98540.72
2023-01-17T23:27:01.913Z,98540.13
2023-01-17T23:29:28.632Z,98540.13
2023-01-17T23:31:55.205Z,98545.28
2023-01-17T23:34:21.810Z,98549.75
2023-01-17T23:36:48.847Z,98552.94
2023-01-17T23:39:18.047Z,98559.88
2023-01-17T23:42:03.431Z,98562.44
2023-01-17T23:44:31.812Z,98560.88
2023-01-17T23:47:01.322Z,98561.78
2023-01-17T23:49:29.597Z,98560.69
2023-01-17T23:51:56.223Z,98572.84
2023-01-17T23:54:22.896Z,98574.66
2023-01-17T23:56:49.416Z,98573.78
2023-01-17T23:59:16.460Z,98578.66
